sensor_id;sensor_type;location;lat;lon;timestamp;temperature;humidity
41944;DHT22;27636;52.610;13.244;2023-02-03T00:00:05;1.30;99.90
41944;DHT22;27636;52.610;13.244;2023-02-03T00:05:13;1.50;99.90
41944;DHT22;27636;52.610;13.244;2023-02-03T00:10:18;1.70;99.90
41944;DHT22;27636;52.610;13.244;2023-02-03T00:15:23;1.90;99.90
41944;DHT22;27636;52.610;13.244;2023-02-03T00:20:27;2.10;99.90
41944;DHT22;27636;52.610;13.244;2023-02-03T00:25:32;2.30;99.90
41944;DHT22;27636;52.610;13.244;2023-02-03T00:30:36;2.40;99.90
41944;DHT22;27636;52.610;13.244;2023-02-03T00:35:39;2.50;99.90
41944;DHT22;27636;52.610;13.244;2023-02-03T00:40:50;2.60;99.90
41944;DHT22;27636;52.610;13.244;2023-02-03T00:45:54;2.60;99.90
41944;DHT22;27636;52.610;13.244;2023-02-03T00:50:57;2.50;99.90
41944;DHT22;27636;52.610;13.244;2023-02-03T00:56:02;2.50;99.90
41944;DHT22;27636;52.610;13.244;2023-02-03T01:01:06;2.90;99.90
41944;DHT22;27636;52.610;13.244;2023-02-03T01:06:12;2.70;99.90
41944;DHT22;27636;52.610;13.244;2023-02-03T01:11:19;2.80;99.90
41944;DHT22;27636;52.610;13.244;2023-02-03T01:16:24;2.80;99.90
41944;DHT22;27636;52.610;13.244;2023-02-03T01:21:31;2.70;99.90
41944;DHT22;27636;52.610;13.244;2023-02-03T01:26:35;3.00;99.90
41944;DHT22;27636;52.610;13.244;2023-02-03T01:31:40;3.00;99.90
41944;DHT22;27636;52.610;13.244;2023-02-03T01:36:45;2.90;99.90
41944;DHT22;27636;52.610;13.244;2023-02-03T01:41:50;2.90;99.90
41944;DHT22;27636;52.610;13.244;2023-02-03T01:46:53;2.90;99.90
41944;DHT22;27636;52.610;13.244;2023-02-03T01:51:58;2.80;99.90
41944;DHT22;27636;52.610;13.244;2023-02-03T01:57:06;2.80;99.90
41944;DHT22;27636;52.610;13.244;2023-02-03T02:02:14;2.70;99.90
41944;DHT22;27636;52.610;13.244;2023-02-03T02:07:17;2.80;99.90
41944;DHT22;27636;52.610;13.244;2023-02-03T02:12:22;2.80;99.90
41944;DHT22;27636;52.610;13.244;2023-02-03T02:23:10;2.60;99.90
41944;DHT22;27636;52.610;13.244;2023-02-03T02:28:44;2.70;99.90
41944;DHT22;27636;52.610;13.244;2023-02-03T02:33:56;2.70;99.90
41944;DHT22;27636;52.610;13.244;2023-02-03T02:39:08;2.60;99.90
41944;DHT22;27636;52.610;13.244;2023-02-03T02:44:16;2.70;99.90
41944;DHT22;27636;52.610;13.244;2023-02-03T02:49:26;2.60;99.90
41944;DHT22;27636;52.610;13.244;2023-02-03T02:54:32;2.60;99.90
41944;DHT22;27636;52.610;13.244;2023-02-03T02:59:36;2.60;99.90
41944;DHT22;27636;52.610;13.244;2023-02-03T03:04:41;2.50;99.90
41944;DHT22;27636;52.610;13.244;2023-02-03T03:09:49;2.70;99.90
41944;DHT22;27636;52.610;13.244;2023-02-03T03:14:56;2.70;99.90
41944;DHT22;27636;52.610;13.244;2023-02-03T03:20:05;2.80;99.90
41944;DHT22;27636;52.610;13.244;2023-02-03T03:25:14;2.70;99.90
41944;DHT22;27636;52.610;13.244;2023-02-03T03:30:22;2.80;99.90
41944;DHT22;27636;52.610;13.244;2023-02-03T03:35:33;2.80;99.90
41944;DHT22;27636;52.610;13.244;2023-02-03T03:40:42;2.80;99.90
41944;DHT22;27636;52.610;13.244;2023-02-03T03:45:53;2.90;99.90
41944;DHT22;27636;52.610;13.244;2023-02-03T03:51:01;2.90;99.90
41944;DHT22;27636;52.610;13.244;2023-02-03T03:56:10;3.20;99.90
41944;DHT22;27636;52.610;13.244;2023-02-03T04:01:16;3.10;99.90
41944;DHT22;27636;52.610;13.244;2023-02-03T04:06:21;3.00;99.90
41944;DHT22;27636;52.610;13.244;2023-02-03T04:11:25;3.10;99.90
41944;DHT22;27636;52.610;13.244;2023-02-03T04:16:46;3.00;99.90
41944;DHT22;27636;52.610;13.244;2023-02-03T04:21:51;3.30;99.90
41944;DHT22;27636;52.610;13.244;2023-02-03T04:26:54;3.30;99.90
41944;DHT22;27636;52.610;13.244;2023-02-03T04:31:58;3.40;99.90
41944;DHT22;27636;52.610;13.244;2023-02-03T04:37:02;3.40;99.90
41944;DHT22;27636;52.610;13.244;2023-02-03T04:42:05;3.70;99.90
41944;DHT22;27636;52.610;13.244;2023-02-03T04:47:09;3.70;99.90
41944;DHT22;27636;52.610;13.244;2023-02-03T04:52:14;3.90;99.90
41944;DHT22;27636;52.610;13.244;2023-02-03T04:57:17;3.90;99.90
41944;DHT22;27636;52.610;13.244;2023-02-03T05:02:20;4.10;99.90
41944;DHT22;27636;52.610;13.244;2023-02-03T05:07:25;4.20;99.90
41944;DHT22;27636;52.610;13.244;2023-02-03T05:12:28;4.50;99.90
41944;DHT22;27636;52.610;13.244;2023-02-03T05:17:31;4.60;99.90
41944;DHT22;27636;52.610;13.244;2023-02-03T05:22:36;4.80;99.90
41944;DHT22;27636;52.610;13.244;2023-02-03T05:27:40;5.00;99.90
41944;DHT22;27636;52.610;13.244;2023-02-03T05:32:43;5.00;99.90
41944;DHT22;27636;52.610;13.244;2023-02-03T05:37:48;5.10;99.90
41944;DHT22;27636;52.610;13.244;2023-02-03T05:42:51;5.20;99.90
41944;DHT22;27636;52.610;13.244;2023-02-03T05:47:54;5.30;99.90
41944;DHT22;27636;52.610;13.244;2023-02-03T05:52:59;5.50;99.90
41944;DHT22;27636;52.610;13.244;2023-02-03T05:58:03;5.60;99.90
41944;DHT22;27636;52.610;13.244;2023-02-03T06:03:06;5.50;99.90
41944;DHT22;27636;52.610;13.244;2023-02-03T06:08:13;5.80;99.90
41944;DHT22;27636;52.610;13.244;2023-02-03T06:13:17;6.00;99.90
41944;DHT22;27636;52.610;13.244;2023-02-03T06:18:21;6.00;99.90
41944;DHT22;27636;52.610;13.244;2023-02-03T06:23:26;6.00;99.90
41944;DHT22;27636;52.610;13.244;2023-02-03T06:28:29;6.20;99.90
41944;DHT22;27636;52.610;13.244;2023-02-03T06:33:35;6.20;99.90
41944;DHT22;27636;52.610;13.244;2023-02-03T06:39:12;6.40;99.90
41944;DHT22;27636;52.610;13.244;2023-02-03T06:44:31;6.40;99.90
41944;DHT22;27636;52.610;13.244;2023-02-03T06:49:37;6.60;99.90
41944;DHT22;27636;52.610;13.244;2023-02-03T07:00:56;6.70;99.90
41944;DHT22;27636;52.610;13.244;2023-02-03T07:06:04;6.70;99.90
41944;DHT22;27636;52.610;13.244;2023-02-03T07:11:09;6.80;99.90
41944;DHT22;27636;52.610;13.244;2023-02-03T07:16:14;6.90;99.90
41944;DHT22;27636;52.610;13.244;2023-02-03T07:21:17;7.00;99.90
41944;DHT22;27636;52.610;13.244;2023-02-03T07:26:22;7.10;99.90
41944;DHT22;27636;52.610;13.244;2023-02-03T07:31:32;7.20;99.90
41944;DHT22;27636;52.610;13.244;2023-02-03T07:36:40;7.10;99.90
41944;DHT22;27636;52.610;13.244;2023-02-03T07:41:46;7.30;99.90
41944;DHT22;27636;52.610;13.244;2023-02-03T07:46:53;7.20;99.90
41944;DHT22;27636;52.610;13.244;2023-02-03T07:52:02;7.20;99.90
41944;DHT22;27636;52.610;13.244;2023-02-03T07:57:06;7.20;99.90
41944;DHT22;27636;52.610;13.244;2023-02-03T08:02:11;7.20;99.90
41944;DHT22;27636;52.610;13.244;2023-02-03T08:07:14;7.30;99.90
41944;DHT22;27636;52.610;13.244;2023-02-03T08:12:18;7.30;99.90
41944;DHT22;27636;52.610;13.244;2023-02-03T08:17:23;7.30;99.90
41944;DHT22;27636;52.610;13.244;2023-02-03T08:22:29;7.20;99.90
41944;DHT22;27636;52.610;13.244;2023-02-03T08:27:32;7.30;99.90
41944;DHT22;27636;52.610;13.244;2023-02-03T08:32:38;7.40;99.90
41944;DHT22;27636;52.610;13.244;2023-02-03T08:37:42;7.30;99.90
41944;DHT22;27636;52.610;13.244;2023-02-03T08:42:45;7.50;99.90
41944;DHT22;27636;52.610;13.244;2023-02-03T08:47:50;7.40;99.90
41944;DHT22;27636;52.610;13.244;2023-02-03T08:52:53;7.40;99.90
41944;DHT22;27636;52.610;13.244;2023-02-03T08:57:58;7.50;99.90
41944;DHT22;27636;52.610;13.244;2023-02-03T09:03:03;7.50;99.90
41944;DHT22;27636;52.610;13.244;2023-02-03T09:08:09;7.60;99.90
41944;DHT22;27636;52.610;13.244;2023-02-03T09:13:14;7.50;99.90
41944;DHT22;27636;52.610;13.244;2023-02-03T09:18:20;7.60;99.90
41944;DHT22;27636;52.610;13.244;2023-02-03T09:23:23;7.60;99.90
41944;DHT22;27636;52.610;13.244;2023-02-03T09:28:27;7.70;99.90
41944;DHT22;27636;52.610;13.244;2023-02-03T09:33:32;7.70;99.90
41944;DHT22;27636;52.610;13.244;2023-02-03T09:38:36;7.80;99.90
41944;DHT22;27636;52.610;13.244;2023-02-03T09:43:43;7.80;99.90
41944;DHT22;27636;52.610;13.244;2023-02-03T09:48:53;7.80;99.90
41944;DHT22;27636;52.610;13.244;2023-02-03T09:54:02;7.90;99.90
41944;DHT22;27636;52.610;13.244;2023-02-03T09:59:08;7.90;99.90
41944;DHT22;27636;52.610;13.244;2023-02-03T10:04:17;8.00;99.90
41944;DHT22;27636;52.610;13.244;2023-02-03T10:09:39;8.00;99.90
41944;DHT22;27636;52.610;13.244;2023-02-03T10:14:59;8.00;99.90
41944;DHT22;27636;52.610;13.244;2023-02-03T10:20:16;8.00;99.90
41944;DHT22;27636;52.610;13.244;2023-02-03T10:25:30;8.10;99.90
41944;DHT22;27636;52.610;13.244;2023-02-03T10:30:40;8.10;99.90
41944;DHT22;27636;52.610;13.244;2023-02-03T10:35:51;8.00;99.90
41944;DHT22;27636;52.610;13.244;2023-02-03T10:40:55;7.90;99.90
41944;DHT22;27636;52.610;13.244;2023-02-03T10:45:59;7.70;99.90
41944;DHT22;27636;52.610;13.244;2023-02-03T10:51:09;7.40;99.90
41944;DHT22;27636;52.610;13.244;2023-02-03T10:56:16;7.30;99.90
41944;DHT22;27636;52.610;13.244;2023-02-03T11:01:25;7.30;99.90
41944;DHT22;27636;52.610;13.244;2023-02-03T11:06:32;7.20;99.90
41944;DHT22;27636;52.610;13.244;2023-02-03T11:11:35;7.10;99.90
41944;DHT22;27636;52.610;13.244;2023-02-03T11:16:43;7.20;99.90
41944;DHT22;27636;52.610;13.244;2023-02-03T11:21:52;7.40;99.90
41944;DHT22;27636;52.610;13.244;2023-02-03T11:26:58;7.50;99.90
41944;DHT22;27636;52.610;13.244;2023-02-03T11:32:05;7.70;99.90
41944;DHT22;27636;52.610;13.244;2023-02-03T11:37:27;8.00;99.90
41944;DHT22;27636;52.610;13.244;2023-02-03T11:42:30;8.10;99.90
41944;DHT22;27636;52.610;13.244;2023-02-03T11:47:34;8.20;99.90
41944;DHT22;27636;52.610;13.244;2023-02-03T11:58:31;8.30;99.90
41944;DHT22;27636;52.610;13.244;2023-02-03T12:03:58;8.40;99.90
41944;DHT22;27636;52.610;13.244;2023-02-03T12:09:10;8.50;99.90
41944;DHT22;27636;52.610;13.244;2023-02-03T12:14:30;8.50;99.90
41944;DHT22;27636;52.610;13.244;2023-02-03T12:19:50;8.50;99.90
41944;DHT22;27636;52.610;13.244;2023-02-03T12:25:02;8.70;99.90
41944;DHT22;27636;52.610;13.244;2023-02-03T12:30:12;8.70;99.90
41944;DHT22;27636;52.610;13.244;2023-02-03T12:35:22;9.70;99.90
41944;DHT22;27636;52.610;13.244;2023-02-03T12:40:34;9.70;99.90
41944;DHT22;27636;52.610;13.244;2023-02-03T12:45:41;9.80;99.90
41944;DHT22;27636;52.610;13.244;2023-02-03T12:50:50;9.10;99.90
41944;DHT22;27636;52.610;13.244;2023-02-03T12:56:02;8.00;99.90
41944;DHT22;27636;52.610;13.244;2023-02-03T13:01:13;6.20;99.90
41944;DHT22;27636;52.610;13.244;2023-02-03T13:06:23;5.80;99.90
41944;DHT22;27636;52.610;13.244;2023-02-03T13:11:35;5.90;99.90
41944;DHT22;27636;52.610;13.244;2023-02-03T13:16:43;5.80;99.90
41944;DHT22;27636;52.610;13.244;2023-02-03T13:21:48;5.80;99.90
41944;DHT22;27636;52.610;13.244;2023-02-03T13:27:13;5.80;99.90
41944;DHT22;27636;52.610;13.244;2023-02-03T13:32:32;5.80;99.90
41944;DHT22;27636;52.610;13.244;2023-02-03T13:37:53;5.80;99.90
41944;DHT22;27636;52.610;13.244;2023-02-03T13:43:05;6.30;99.90
41944;DHT22;27636;52.610;13.244;2023-02-03T13:48:16;6.70;99.90
41944;DHT22;27636;52.610;13.244;2023-02-03T13:53:23;7.00;99.90
41944;DHT22;27636;52.610;13.244;2023-02-03T13:58:31;7.00;99.90
41944;DHT22;27636;52.610;13.244;2023-02-03T14:03:45;6.80;99.90
41944;DHT22;27636;52.610;13.244;2023-02-03T14:08:50;7.00;99.90
41944;DHT22;27636;52.610;13.244;2023-02-03T14:19:53;7.50;99.90
41944;DHT22;27636;52.610;13.244;2023-02-03T14:25:04;7.30;99.90
41944;DHT22;27636;52.610;13.244;2023-02-03T14:30:13;6.90;99.90
41944;DHT22;27636;52.610;13.244;2023-02-03T14:35:18;7.10;99.90
41944;DHT22;27636;52.610;13.244;2023-02-03T14:40:32;7.50;99.90
41944;DHT22;27636;52.610;13.244;2023-02-03T14:51:18;7.80;99.90
41944;DHT22;27636;52.610;13.244;2023-02-03T14:56:32;7.60;99.90
41944;DHT22;27636;52.610;13.244;2023-02-03T15:02:10;7.60;99.90
41944;DHT22;27636;52.610;13.244;2023-02-03T15:07:37;7.50;99.90
41944;DHT22;27636;52.610;13.244;2023-02-03T15:12:47;7.30;99.90
41944;DHT22;27636;52.610;13.244;2023-02-03T15:17:54;7.20;99.90
41944;DHT22;27636;52.610;13.244;2023-02-03T15:22:58;7.10;99.90
41944;DHT22;27636;52.610;13.244;2023-02-03T15:28:12;7.10;99.90
41944;DHT22;27636;52.610;13.244;2023-02-03T15:33:17;7.10;99.90
41944;DHT22;27636;52.610;13.244;2023-02-03T15:38:26;7.00;99.90
41944;DHT22;27636;52.610;13.244;2023-02-03T15:43:34;7.00;99.90
41944;DHT22;27636;52.610;13.244;2023-02-03T15:48:45;6.90;99.90
41944;DHT22;27636;52.610;13.244;2023-02-03T15:53:55;6.90;99.90
41944;DHT22;27636;52.610;13.244;2023-02-03T15:58:59;6.80;99.90
41944;DHT22;27636;52.610;13.244;2023-02-03T16:04:08;6.80;99.90
41944;DHT22;27636;52.610;13.244;2023-02-03T16:09:29;7.00;99.90
41944;DHT22;27636;52.610;13.244;2023-02-03T16:14:34;6.80;99.90
41944;DHT22;27636;52.610;13.244;2023-02-03T16:19:39;6.90;99.90
41944;DHT22;27636;52.610;13.244;2023-02-03T16:24:46;6.90;99.90
41944;DHT22;27636;52.610;13.244;2023-02-03T16:29:49;6.90;99.90
41944;DHT22;27636;52.610;13.244;2023-02-03T16:35:13;6.80;99.90
41944;DHT22;27636;52.610;13.244;2023-02-03T16:40:37;6.80;99.90
41944;DHT22;27636;52.610;13.244;2023-02-03T16:45:59;6.80;99.90
41944;DHT22;27636;52.610;13.244;2023-02-03T16:51:23;6.70;99.90
41944;DHT22;27636;52.610;13.244;2023-02-03T16:56:27;6.70;99.90
41944;DHT22;27636;52.610;13.244;2023-02-03T17:01:30;6.70;99.90
41944;DHT22;27636;52.610;13.244;2023-02-03T17:06:37;6.70;99.90
41944;DHT22;27636;52.610;13.244;2023-02-03T17:11:41;6.70;99.90
41944;DHT22;27636;52.610;13.244;2023-02-03T17:16:44;6.70;99.90
41944;DHT22;27636;52.610;13.244;2023-02-03T17:21:49;6.80;99.90
41944;DHT22;27636;52.610;13.244;2023-02-03T17:26:53;6.90;99.90
41944;DHT22;27636;52.610;13.244;2023-02-03T17:31:59;6.90;99.90
41944;DHT22;27636;52.610;13.244;2023-02-03T17:37:04;7.00;99.90
41944;DHT22;27636;52.610;13.244;2023-02-03T17:42:08;7.00;99.90
41944;DHT22;27636;52.610;13.244;2023-02-03T17:47:28;7.00;99.90
41944;DHT22;27636;52.610;13.244;2023-02-03T17:52:51;7.00;99.90
41944;DHT22;27636;52.610;13.244;2023-02-03T17:58:05;7.10;99.90
41944;DHT22;27636;52.610;13.244;2023-02-03T18:03:08;7.10;99.90
41944;DHT22;27636;52.610;13.244;2023-02-03T18:08:14;7.10;99.90
41944;DHT22;27636;52.610;13.244;2023-02-03T18:13:22;7.00;99.90
41944;DHT22;27636;52.610;13.244;2023-02-03T18:18:28;7.10;99.90
41944;DHT22;27636;52.610;13.244;2023-02-03T18:23:33;7.10;99.90
41944;DHT22;27636;52.610;13.244;2023-02-03T18:28:36;7.10;99.90
41944;DHT22;27636;52.610;13.244;2023-02-03T18:33:42;7.10;99.90
41944;DHT22;27636;52.610;13.244;2023-02-03T18:38:47;7.10;99.90
41944;DHT22;27636;52.610;13.244;2023-02-03T18:43:51;7.10;99.90
41944;DHT22;27636;52.610;13.244;2023-02-03T18:48:54;7.10;99.90
41944;DHT22;27636;52.610;13.244;2023-02-03T18:54:00;7.10;99.90
41944;DHT22;27636;52.610;13.244;2023-02-03T18:59:05;7.20;99.90
41944;DHT22;27636;52.610;13.244;2023-02-03T19:04:09;7.20;99.90
41944;DHT22;27636;52.610;13.244;2023-02-03T19:09:15;7.20;99.90
41944;DHT22;27636;52.610;13.244;2023-02-03T19:14:20;7.20;99.90
41944;DHT22;27636;52.610;13.244;2023-02-03T19:19:23;7.20;99.90
41944;DHT22;27636;52.610;13.244;2023-02-03T19:24:29;7.20;99.90
41944;DHT22;27636;52.610;13.244;2023-02-03T19:29:32;7.00;99.90
41944;DHT22;27636;52.610;13.244;2023-02-03T19:34:36;7.00;99.90
41944;DHT22;27636;52.610;13.244;2023-02-03T19:39:40;6.90;99.90
41944;DHT22;27636;52.610;13.244;2023-02-03T19:44:44;6.90;99.90
41944;DHT22;27636;52.610;13.244;2023-02-03T19:49:47;6.90;99.90
41944;DHT22;27636;52.610;13.244;2023-02-03T19:54:52;6.80;99.90
41944;DHT22;27636;52.610;13.244;2023-02-03T19:59:57;6.80;99.90
41944;DHT22;27636;52.610;13.244;2023-02-03T20:05:00;6.80;99.90
41944;DHT22;27636;52.610;13.244;2023-02-03T20:10:06;6.80;99.90
41944;DHT22;27636;52.610;13.244;2023-02-03T20:15:10;6.70;99.90
41944;DHT22;27636;52.610;13.244;2023-02-03T20:20:14;6.70;99.90
41944;DHT22;27636;52.610;13.244;2023-02-03T20:25:19;6.60;99.90
41944;DHT22;27636;52.610;13.244;2023-02-03T20:30:23;6.50;99.90
41944;DHT22;27636;52.610;13.244;2023-02-03T20:35:26;6.40;99.90
41944;DHT22;27636;52.610;13.244;2023-02-03T20:40:31;6.40;99.90
41944;DHT22;27636;52.610;13.244;2023-02-03T20:45:35;6.30;99.90
41944;DHT22;27636;52.610;13.244;2023-02-03T20:50:41;6.30;99.90
41944;DHT22;27636;52.610;13.244;2023-02-03T20:55:56;6.20;99.90
41944;DHT22;27636;52.610;13.244;2023-02-03T21:00:59;6.20;99.90
41944;DHT22;27636;52.610;13.244;2023-02-03T21:06:11;6.20;99.90
41944;DHT22;27636;52.610;13.244;2023-02-03T21:11:18;6.10;99.90
41944;DHT22;27636;52.610;13.244;2023-02-03T21:16:23;5.60;99.90
41944;DHT22;27636;52.610;13.244;2023-02-03T21:21:34;5.10;99.90
41944;DHT22;27636;52.610;13.244;2023-02-03T21:26:40;4.80;99.90
41944;DHT22;27636;52.610;13.244;2023-02-03T21:31:43;4.50;99.90
41944;DHT22;27636;52.610;13.244;2023-02-03T21:36:48;4.40;99.90
41944;DHT22;27636;52.610;13.244;2023-02-03T21:41:54;4.10;99.90
41944;DHT22;27636;52.610;13.244;2023-02-03T21:47:02;4.00;99.90
41944;DHT22;27636;52.610;13.244;2023-02-03T21:52:09;4.00;99.90
41944;DHT22;27636;52.610;13.244;2023-02-03T21:57:14;4.00;99.90
41944;DHT22;27636;52.610;13.244;2023-02-03T22:02:25;4.00;99.90
41944;DHT22;27636;52.610;13.244;2023-02-03T22:07:38;4.00;99.90
41944;DHT22;27636;52.610;13.244;2023-02-03T22:12:43;3.90;99.90
41944;DHT22;27636;52.610;13.244;2023-02-03T22:17:46;3.90;99.90
41944;DHT22;27636;52.610;13.244;2023-02-03T22:22:51;4.00;99.90
41944;DHT22;27636;52.610;13.244;2023-02-03T22:27:56;3.90;99.90
41944;DHT22;27636;52.610;13.244;2023-02-03T22:32:59;3.90;99.90
41944;DHT22;27636;52.610;13.244;2023-02-03T22:38:04;3.80;99.90
41944;DHT22;27636;52.610;13.244;2023-02-03T22:43:08;3.70;99.90
41944;DHT22;27636;52.610;13.244;2023-02-03T22:48:12;3.80;99.90
41944;DHT22;27636;52.610;13.244;2023-02-03T22:53:15;3.70;99.90
41944;DHT22;27636;52.610;13.244;2023-02-03T22:58:20;3.60;99.90
41944;DHT22;27636;52.610;13.244;2023-02-03T23:03:24;3.60;99.90
41944;DHT22;27636;52.610;13.244;2023-02-03T23:08:27;3.60;99.90
41944;DHT22;27636;52.610;13.244;2023-02-03T23:13:32;3.60;99.90
41944;DHT22;27636;52.610;13.244;2023-02-03T23:18:35;3.60;99.90
41944;DHT22;27636;52.610;13.244;2023-02-03T23:23:38;3.60;99.90
41944;DHT22;27636;52.610;13.244;2023-02-03T23:28:44;3.50;99.90
41944;DHT22;27636;52.610;13.244;2023-02-03T23:33:48;3.60;99.90
41944;DHT22;27636;52.610;13.244;2023-02-03T23:39:10;3.50;99.90
41944;DHT22;27636;52.610;13.244;2023-02-03T23:44:15;3.60;99.90
41944;DHT22;27636;52.610;13.244;2023-02-03T23:49:18;3.50;99.90
41944;DHT22;27636;52.610;13.244;2023-02-03T23:54:22;3.50;99.90
41944;DHT22;27636;52.610;13.244;2023-02-03T23:59:26;3.50;99.90
